Time;durP1;ratioP1;P1;durP2;ratioP2;P2;SDS_P1;SDS_P2;PMS_P1;PMS_P2;Temp;Humidity;BMP_temperature;BMP_pressure;BME280_temperature;BME280_humidity;BME280_pressure;Samples;Min_cycle;Max_cycle;Signal;HPM_P1;HPM_P2
2024/01/01 00:02:56;;;;;;;8.00;4.60;;;;;5.10;95508.00;;;;8275197;28;20312;-78
2024/01/01 00:06:59;;;;;;;7.73;4.40;;;;;5.10;95490.00;;;;8272136;28;20772;-80
2024/01/01 00:11:04;;;;;;;10.07;4.40;;;;;5.10;95494.00;;;;8273928;28;20202;-76
2024/01/01 00:15:07;;;;;;;11.43;4.40;;;;;5.00;95492.00;;;;8274233;28;20284;-79
2024/01/01 00:19:11;;;;;;;8.17;3.57;;;;;5.00;95500.00;;;;8272329;28;20802;-79
2024/01/01 00:23:14;;;;;;;6.47;3.57;;;;;5.00;95502.00;;;;8270411;28;20202;-76
2024/01/01 00:27:19;;;;;;;10.60;4.83;;;;;5.10;95511.00;;;;8273781;28;20206;-77
2024/01/01 00:31:22;;;;;;;8.57;4.50;;;;;5.10;95498.00;;;;8274351;28;20206;-77
2024/01/01 00:35:25;;;;;;;10.77;4.93;;;;;5.10;95499.00;;;;8275355;28;20234;-76
2024/01/01 00:39:28;;;;;;;16.63;5.17;;;;;5.10;95505.00;;;;8275915;28;20200;-77
2024/01/01 00:43:34;;;;;;;11.63;5.87;;;;;5.10;95489.00;;;;8273719;28;20317;-79
2024/01/01 00:47:38;;;;;;;15.77;5.83;;;;;5.10;95490.00;;;;8279741;28;20272;-79
2024/01/01 00:51:41;;;;;;;13.73;6.27;;;;;5.10;95505.00;;;;8280094;28;20198;-79
2024/01/01 00:55:46;;;;;;;14.70;6.73;;;;;5.10;95492.00;;;;8279630;28;20288;-77
2024/01/01 00:59:51;;;;;;;15.63;7.13;;;;;5.00;95503.00;;;;8283089;28;20204;-77
2024/01/01 01:03:54;;;;;;;21.37;8.67;;;;;5.00;95500.00;;;;8276515;28;20237;-77
2024/01/01 01:07:58;;;;;;;23.90;9.87;;;;;5.00;95505.00;;;;8274316;28;20595;-78
2024/01/01 01:12:02;;;;;;;32.57;11.73;;;;;5.00;95513.00;;;;8261594;28;20217;-80
2024/01/01 01:16:07;;;;;;;28.73;11.63;;;;;4.90;95511.00;;;;8268916;28;20233;-76
2024/01/01 01:20:11;;;;;;;32.73;14.10;;;;;4.90;95525.00;;;;8266427;28;20202;-77
2024/01/01 01:24:15;;;;;;;41.70;16.23;;;;;4.90;95529.00;;;;8269315;28;20206;-79
2024/01/01 01:28:22;;;;;;;44.70;17.60;;;;;4.90;95542.00;;;;8266261;28;20206;-77
2024/01/01 01:32:27;;;;;;;45.43;18.50;;;;;4.80;95531.00;;;;8264296;28;20225;-77
2024/01/01 01:36:30;;;;;;;47.43;19.93;;;;;4.80;95530.00;;;;8267491;28;20229;-77
2024/01/01 01:40:33;;;;;;;44.43;20.20;;;;;4.70;95528.00;;;;8265337;28;21192;-78
2024/01/01 01:44:36;;;;;;;46.40;19.90;;;;;4.70;95525.00;;;;8265134;28;20202;-77
2024/01/01 01:48:41;;;;;;;44.70;19.87;;;;;4.60;95518.00;;;;8268533;28;20201;-77
2024/01/01 01:52:45;;;;;;;51.60;21.00;;;;;4.60;95514.00;;;;8266247;28;20240;-81
2024/01/01 01:56:48;;;;;;;52.43;19.80;;;;;4.60;95521.00;;;;8267239;28;20253;-78
2024/01/01 02:00:52;;;;;;;47.93;20.27;;;;;4.60;95518.00;;;;8265899;28;20197;-79
2024/01/01 02:04:56;;;;;;;50.90;20.20;;;;;4.60;95505.00;;;;8264911;28;22311;-78
2024/01/01 02:09:00;;;;;;;41.63;19.60;;;;;4.60;95502.00;;;;8264256;28;20672;-78
2024/01/01 02:13:03;;;;;;;46.33;18.30;;;;;4.50;95504.00;;;;8263728;28;20230;-77
2024/01/01 02:17:06;;;;;;;45.70;19.03;;;;;4.50;95502.00;;;;8265160;28;20272;-79
2024/01/01 02:21:11;;;;;;;40.83;17.93;;;;;4.40;95511.00;;;;8265144;28;20925;-79
2024/01/01 02:25:16;;;;;;;38.37;16.67;;;;;4.40;95494.00;;;;8265746;28;20202;-78
2024/01/01 02:29:19;;;;;;;39.10;16.40;;;;;4.40;95490.00;;;;8264254;28;20276;-81
2024/01/01 02:33:22;;;;;;;37.17;15.30;;;;;4.40;95496.00;;;;8262834;28;20229;-78
2024/01/01 02:37:25;;;;;;;35.83;14.93;;;;;4.40;95497.00;;;;8264918;28;21097;-78
2024/01/01 02:41:30;;;;;;;29.90;13.00;;;;;4.50;95493.00;;;;8266298;28;20652;-80
2024/01/01 02:45:34;;;;;;;30.97;13.27;;;;;4.50;95481.00;;;;8264682;28;20198;-77
2024/01/01 02:49:37;;;;;;;30.57;12.70;;;;;4.60;95487.00;;;;8263834;28;20234;-81
2024/01/01 02:53:40;;;;;;;24.67;12.30;;;;;4.50;95481.00;;;;8264424;28;20268;-80
2024/01/01 02:57:44;;;;;;;33.47;13.03;;;;;4.50;95481.00;;;;8265318;28;20230;-80
2024/01/01 03:01:47;;;;;;;27.33;12.33;;;;;4.40;95487.00;;;;8299000;22;20610;-80
2024/01/01 03:05:50;;;;;;;26.40;11.83;;;;;4.30;95482.00;;;;8287909;28;20244;-80
2024/01/01 03:09:54;;;;;;;24.73;11.40;;;;;4.30;95466.00;;;;8291067;28;20201;-80
2024/01/01 03:13:58;;;;;;;27.17;11.40;;;;;4.30;95463.00;;;;8290304;28;20198;-81
2024/01/01 03:18:02;;;;;;;26.33;11.37;;;;;4.20;95462.00;;;;8292842;28;20221;-80
2024/01/01 03:22:05;;;;;;;28.00;11.17;;;;;4.10;95461.00;;;;8300751;28;20808;-80
2024/01/01 03:26:08;;;;;;;22.80;10.90;;;;;4.10;95463.00;;;;8300248;28;20239;-79
2024/01/01 03:30:13;;;;;;;32.30;20.73;;;;;4.00;95470.00;;;;8301241;28;20256;-83
2024/01/01 03:34:17;;;;;;;25.70;10.40;;;;;4.00;95482.00;;;;8300455;28;20208;-80
2024/01/01 03:38:22;;;;;;;23.83;10.30;;;;;3.90;95475.00;;;;8299524;28;20207;-82
2024/01/01 03:42:25;;;;;;;23.13;9.43;;;;;3.90;95488.00;;;;8300546;28;20225;-80
2024/01/01 03:46:30;;;;;;;24.03;9.20;;;;;4.00;95478.00;;;;8300521;28;20629;-80
2024/01/01 03:50:33;;;;;;;30.03;10.27;;;;;4.00;95468.00;;;;8300883;28;20558;-79
2024/01/01 03:54:36;;;;;;;19.63;9.57;;;;;4.10;95465.00;;;;8300135;28;20220;-81
2024/01/01 03:58:40;;;;;;;20.80;9.00;;;;;4.10;95458.00;;;;8300834;28;20369;-78
2024/01/01 04:02:46;;;;;;;15.47;8.33;;;;;4.00;95470.00;;;;8290962;28;20905;-79
2024/01/01 04:06:50;;;;;;;18.40;8.00;;;;;4.00;95476.00;;;;8278837;28;20202;-79
2024/01/01 04:10:53;;;;;;;19.90;8.37;;;;;4.00;95483.00;;;;8275757;28;20220;-84
2024/01/01 04:14:56;;;;;;;18.90;8.30;;;;;4.00;95478.00;;;;8278393;28;20334;-80
2024/01/01 04:19:01;;;;;;;18.27;8.47;;;;;4.00;95485.00;;;;8277155;28;20226;-79
2024/01/01 04:23:04;;;;;;;20.07;8.13;;;;;4.00;95492.00;;;;8275941;28;20202;-80
2024/01/01 04:27:08;;;;;;;16.87;7.80;;;;;4.10;95496.00;;;;8274347;28;20247;-77
2024/01/01 04:31:11;;;;;;;19.60;7.83;;;;;4.20;95488.00;;;;8277745;28;20845;-77
2024/01/01 04:35:15;;;;;;;17.23;8.43;;;;;4.40;95483.00;;;;8274782;28;20364;-79
2024/01/01 04:39:19;;;;;;;16.87;7.20;;;;;4.50;95491.00;;;;8278015;28;20301;-80
2024/01/01 04:43:22;;;;;;;19.90;7.93;;;;;4.60;95494.00;;;;8274497;28;20729;-80
2024/01/01 04:47:25;;;;;;;14.83;7.57;;;;;4.70;95496.00;;;;8277717;28;20324;-80
2024/01/01 04:51:29;;;;;;;15.83;7.53;;;;;4.70;95508.00;;;;8274582;28;20272;-79
2024/01/01 04:55:34;;;;;;;19.73;8.00;;;;;4.80;95517.00;;;;8275875;28;20221;-79
2024/01/01 04:59:38;;;;;;;15.97;7.47;;;;;4.80;95519.00;;;;8275392;28;20204;-79
2024/01/01 05:03:41;;;;;;;13.17;6.50;;;;;4.80;95517.00;;;;8277886;28;20264;-79
2024/01/01 05:07:45;;;;;;;19.43;7.40;;;;;4.80;95519.00;;;;8277267;28;20631;-79
2024/01/01 05:11:48;;;;;;;15.80;7.20;;;;;4.90;95517.00;;;;8278020;28;20199;-79
2024/01/01 05:15:51;;;;;;;13.27;5.93;;;;;4.90;95519.00;;;;8275534;28;20854;-82
2024/01/01 05:19:54;;;;;;;15.33;6.93;;;;;4.90;95514.00;;;;8278598;28;20197;-81
2024/01/01 05:23:59;;;;;;;12.87;6.37;;;;;4.90;95520.00;;;;8276618;28;20206;-82
2024/01/01 05:28:05;;;;;;;18.00;6.20;;;;;4.90;95516.00;;;;8278197;28;20224;-80
2024/01/01 05:32:08;;;;;;;11.40;5.90;;;;;4.90;95519.00;;;;8278504;28;20604;-82
2024/01/01 05:36:15;;;;;;;14.47;6.60;;;;;5.00;95519.00;;;;8281220;28;20817;-81
2024/01/01 05:40:19;;;;;;;12.73;6.50;;;;;5.00;95515.00;;;;8283079;28;21319;-81
2024/01/01 05:44:22;;;;;;;13.90;6.23;;;;;5.10;95514.00;;;;8283234;28;20230;-78
2024/01/01 05:48:26;;;;;;;11.33;6.40;;;;;5.10;95530.00;;;;8284749;28;20201;-78
2024/01/01 05:52:41;;;;;;;13.83;6.40;;;;;5.20;95530.00;;;;8281588;28;20667;-83
2024/01/01 05:56:46;;;;;;;10.70;5.03;;;;;5.10;95533.00;;;;8283821;28;20236;-83
2024/01/01 06:00:49;;;;;;;11.00;5.50;;;;;5.10;95538.00;;;;8281371;28;20210;-79
2024/01/01 06:04:52;;;;;;;11.30;5.43;;;;;5.10;95546.00;;;;8280658;28;20797;-81
2024/01/01 06:08:55;;;;;;;14.77;6.67;;;;;5.10;95542.00;;;;8279906;28;20259;-79
2024/01/01 06:13:02;;;;;;;15.50;7.07;;;;;5.00;95546.00;;;;8284448;28;20643;-81
2024/01/01 06:17:05;;;;;;;13.37;7.00;;;;;5.10;95540.00;;;;8281042;28;20226;-81
2024/01/01 06:21:08;;;;;;;15.43;6.57;;;;;5.10;95549.00;;;;8280175;28;20574;-85
2024/01/01 06:25:11;;;;;;;15.67;6.63;;;;;5.10;95538.00;;;;8282054;28;20202;-81
2024/01/01 06:29:16;;;;;;;19.27;7.40;;;;;5.10;95544.00;;;;8282470;28;20252;-84
2024/01/01 06:33:19;;;;;;;14.97;6.47;;;;;5.10;95555.00;;;;8283550;28;20225;-81
2024/01/01 06:37:23;;;;;;;15.43;7.07;;;;;5.10;95557.00;;;;8280077;28;20248;-80
2024/01/01 06:41:26;;;;;;;17.97;7.37;;;;;5.10;95557.00;;;;8279178;28;20699;-78
2024/01/01 06:45:30;;;;;;;18.20;6.43;;;;;5.00;95563.00;;;;8281952;28;20206;-83
2024/01/01 06:49:34;;;;;;;14.13;6.50;;;;;4.90;95580.00;;;;8280540;28;20327;-82
2024/01/01 06:53:38;;;;;;;12.03;6.33;;;;;4.90;95589.00;;;;8281842;28;20194;-80
2024/01/01 06:57:41;;;;;;;18.27;7.70;;;;;4.80;95585.00;;;;8281386;28;20260;-80
2024/01/01 07:01:45;;;;;;;11.70;5.90;;;;;4.80;95605.00;;;;8277694;28;20225;-81
2024/01/01 07:05:49;;;;;;;18.57;8.07;;;;;4.70;95615.00;;;;8275366;28;20202;-82
2024/01/01 07:09:52;;;;;;;18.90;7.13;;;;;4.70;95624.00;;;;8279579;28;20197;-80
2024/01/01 07:13:55;;;;;;;19.60;8.60;;;;;4.60;95624.00;;;;8280733;28;21947;-82
2024/01/01 07:18:00;;;;;;;20.30;8.10;;;;;4.50;95627.00;;;;8278893;28;20222;-83
2024/01/01 07:22:06;;;;;;;16.23;7.30;;;;;4.50;95632.00;;;;8279873;28;20269;-83
2024/01/01 07:26:10;;;;;;;17.00;7.40;;;;;4.60;95629.00;;;;8279393;28;20259;-79
2024/01/01 07:30:14;;;;;;;15.47;6.83;;;;;4.70;95634.00;;;;8280611;28;20209;-83
2024/01/01 07:34:19;;;;;;;14.70;6.60;;;;;4.80;95627.00;;;;8277245;28;20236;-84
2024/01/01 07:38:22;;;;;;;15.20;6.83;;;;;4.90;95638.00;;;;8279653;28;20234;-80
2024/01/01 07:42:26;;;;;;;16.70;7.27;;;;;5.00;95630.00;;;;8280107;28;20215;-80
2024/01/01 07:46:29;;;;;;;18.20;7.37;;;;;5.10;95618.00;;;;8276919;28;20316;-81
2024/01/01 07:50:34;;;;;;;16.90;6.63;;;;;5.20;95619.00;;;;8278390;28;20293;-79
2024/01/01 07:54:38;;;;;;;13.93;5.83;;;;;5.40;95624.00;;;;8277248;28;20233;-82
2024/01/01 07:58:41;;;;;;;15.93;5.90;;;;;5.50;95621.00;;;;8276411;28;20291;-79
2024/01/01 08:02:44;;;;;;;8.40;3.93;;;;;5.60;95618.00;;;;8275056;28;20232;-80
2024/01/01 08:06:49;;;;;;;11.80;4.57;;;;;5.70;95619.00;;;;8276245;28;22419;-82
2024/01/01 08:10:53;;;;;;;9.60;5.20;;;;;5.80;95624.00;;;;8278324;28;20200;-80
2024/01/01 08:14:56;;;;;;;8.27;4.53;;;;;5.80;95635.00;;;;8274558;28;20230;-85
2024/01/01 08:18:59;;;;;;;9.37;4.10;;;;;5.90;95633.00;;;;8272602;28;20225;-83
2024/01/01 08:23:04;;;;;;;8.97;4.30;;;;;6.00;95635.00;;;;8270822;28;20210;-81
2024/01/01 08:27:08;;;;;;;9.77;4.77;;;;;6.00;95625.00;;;;8272891;28;20256;-81
2024/01/01 08:31:11;;;;;;;9.37;4.43;;;;;6.00;95621.00;;;;8276397;28;21015;-81
2024/01/01 08:35:14;;;;;;;9.00;3.97;;;;;6.10;95625.00;;;;8275673;28;20228;-82
2024/01/01 08:39:19;;;;;;;9.37;3.67;;;;;6.10;95639.00;;;;8275716;28;20311;-77
2024/01/01 08:43:22;;;;;;;7.13;3.60;;;;;6.20;95638.00;;;;8274638;28;20667;-83
2024/01/01 08:47:25;;;;;;;6.10;3.60;;;;;6.30;95653.00;;;;8275059;28;20209;-81
2024/01/01 08:51:28;;;;;;;5.90;2.80;;;;;6.50;95652.00;;;;8274701;28;20222;-82
2024/01/01 08:55:33;;;;;;;8.73;2.63;;;;;6.60;95655.00;;;;8270895;28;20923;-83
2024/01/01 08:59:36;;;;;;;4.13;2.40;;;;;6.70;95652.00;;;;8271837;28;20229;-80
2024/01/01 09:03:39;;;;;;;5.67;2.47;;;;;6.70;95656.00;;;;8275265;28;20232;-80
2024/01/01 09:07:42;;;;;;;4.75;2.45;;;;;6.70;95652.00;;;;8273798;28;20202;-83
2024/01/01 09:11:47;;;;;;;5.67;2.30;;;;;6.70;95662.00;;;;8283060;28;20217;-82
2024/01/01 09:15:50;;;;;;;9.37;2.57;;;;;6.80;95675.00;;;;8281768;28;20212;-77
2024/01/01 09:19:54;;;;;;;6.43;2.40;;;;;6.80;95673.00;;;;8284882;28;20352;-82
2024/01/01 09:24:00;;;;;;;6.23;2.23;;;;;6.90;95667.00;;;;8282307;28;20201;-85
2024/01/01 09:28:06;;;;;;;11.43;2.60;;;;;6.90;95669.00;;;;8283060;28;20216;-83
2024/01/01 09:32:09;;;;;;;4.50;1.90;;;;;7.00;95670.00;;;;8280800;28;20606;-80
2024/01/01 09:36:13;;;;;;;5.53;1.90;;;;;7.00;95672.00;;;;8283713;28;20266;-81
2024/01/01 09:40:18;;;;;;;6.43;2.13;;;;;7.10;95675.00;;;;8283038;28;20253;-79
2024/01/01 09:44:22;;;;;;;5.53;1.80;;;;;7.20;95684.00;;;;8283135;28;20225;-79
2024/01/01 09:48:26;;;;;;;2.22;1.75;;;;;7.30;95683.00;;;;8283281;28;20613;-82
2024/01/01 09:52:29;;;;;;;3.53;1.70;;;;;7.40;95686.00;;;;8281452;28;20226;-80
2024/01/01 09:56:32;;;;;;;2.53;1.57;;;;;7.60;95679.00;;;;8279670;28;20757;-79
2024/01/01 10:00:39;;;;;;;2.43;1.57;;;;;7.70;95692.00;;;;8279286;28;20198;-81
2024/01/01 10:04:42;;;;;;;2.97;1.90;;;;;7.80;95693.00;;;;8280002;28;20249;-83
2024/01/01 10:08:45;;;;;;;7.57;3.80;;;;;7.90;95686.00;;;;8280542;28;21222;-80
2024/01/01 10:12:48;;;;;;;8.97;3.97;;;;;7.90;95674.00;;;;8281310;28;20194;-83
2024/01/01 10:16:53;;;;;;;8.98;3.78;;;;;7.80;95672.00;;;;8279954;28;20253;-79
2024/01/01 10:21:10;;;;;;;8.90;4.10;;;;;7.70;95672.00;;;;8280062;28;20241;-79
2024/01/01 10:25:16;;;;;;;8.45;4.95;;;;;7.70;95658.00;;;;8279194;28;20209;-82
2024/01/01 10:29:20;;;;;;;7.90;2.93;;;;;7.80;95656.00;;;;8282749;28;21265;-78
2024/01/01 10:33:27;;;;;;;4.93;2.30;;;;;7.80;95653.00;;;;8277041;28;20190;-79
2024/01/01 10:37:31;;;;;;;3.80;1.97;;;;;7.90;95664.00;;;;8280687;28;20225;-80
2024/01/01 10:41:36;;;;;;;5.60;2.10;;;;;8.00;95677.00;;;;8280244;28;20198;-79
2024/01/01 10:45:40;;;;;;;3.72;1.58;;;;;8.10;95669.00;;;;8279475;28;20202;-78
2024/01/01 10:49:52;;;;;;;5.17;2.27;;;;;8.20;95674.00;;;;8281983;28;20252;-81
2024/01/01 10:54:13;;;;;;;2.55;1.70;;;;;8.40;95689.00;;;;8277363;28;20202;-79
2024/01/01 10:58:26;;;;;;;8.40;2.22;;;;;8.50;95684.00;;;;8279613;28;20328;-77
2024/01/01 11:02:29;;;;;;;5.95;2.20;;;;;8.60;95677.00;;;;8279096;28;20230;-79
2024/01/01 11:06:39;;;;;;;7.70;2.00;;;;;8.60;95678.00;;;;8275345;28;20201;-80
2024/01/01 11:10:44;;;;;;;6.40;1.80;;;;;8.60;95674.00;;;;8276706;28;20198;-82
2024/01/01 11:14:48;;;;;;;2.83;1.52;;;;;8.60;95667.00;;;;8276480;28;20198;-79
2024/01/01 11:18:52;;;;;;;4.88;2.28;;;;;8.50;95681.00;;;;8279766;28;20224;-82
2024/01/01 11:22:57;;;;;;;7.97;2.17;;;;;8.50;95677.00;;;;8275063;28;20301;-80
2024/01/01 11:27:23;;;;;;;8.40;2.38;;;;;8.50;95688.00;;;;8277446;28;20202;-81
2024/01/01 11:31:27;;;;;;;5.22;2.50;;;;;8.50;95669.00;;;;8275678;28;20624;-82
2024/01/01 11:35:30;;;;;;;5.45;1.70;;;;;8.60;95669.00;;;;8277788;28;21862;-79
2024/01/01 11:39:35;;;;;;;4.13;1.52;;;;;8.70;95673.00;;;;8276466;28;20521;-79
2024/01/01 11:43:38;;;;;;;6.27;1.90;;;;;8.80;95681.00;;;;8278894;28;20331;-78
2024/01/01 11:47:42;;;;;;;4.60;1.37;;;;;9.10;95677.00;;;;8278409;28;20304;-80
2024/01/01 11:51:50;;;;;;;3.27;1.70;;;;;9.30;95679.00;;;;8280255;28;20698;-81
2024/01/01 11:55:54;;;;;;;7.90;1.65;;;;;9.30;95681.00;;;;8277307;28;20202;-82
2024/01/01 11:59:58;;;;;;;5.85;1.90;;;;;9.40;95672.00;;;;8275712;28;20630;-79
2024/01/01 12:04:05;;;;;;;2.10;1.70;;;;;9.40;95676.00;;;;8275352;28;20892;-78
2024/01/01 12:08:14;;;;;;;4.30;1.75;;;;;9.50;95676.00;;;;8276860;28;20206;-81
2024/01/01 12:12:19;;;;;;;10.02;1.73;;;;;9.60;95677.00;;;;8277559;28;20226;-79
2024/01/01 12:16:24;;;;;;;5.38;1.80;;;;;9.60;95674.00;;;;8278061;28;20265;-79
2024/01/01 12:20:27;;;;;;;7.80;1.90;;;;;9.50;95674.00;;;;8276298;28;20233;-78
2024/01/01 12:24:30;;;;;;;7.40;1.98;;;;;9.50;95669.00;;;;8277108;28;20656;-79
2024/01/01 12:28:34;;;;;;;5.13;1.98;;;;;9.50;95658.00;;;;8278554;28;20204;-77
2024/01/01 12:32:38;;;;;;;4.65;1.60;;;;;9.40;95665.00;;;;8276157;28;20202;-79
2024/01/01 12:36:43;;;;;;;11.38;1.77;;;;;9.40;95659.00;;;;8274430;28;20205;-80
2024/01/01 12:40:47;;;;;;;9.32;3.20;;;;;9.30;95661.00;;;;8270576;28;20279;-81
2024/01/01 12:44:51;;;;;;;10.95;4.47;;;;;9.20;95668.00;;;;8275375;28;20274;-77
2024/01/01 12:48:54;;;;;;;465.05;256.65;;;;;9.10;95666.00;;;;8271729;28;20203;-75
2024/01/01 12:52:58;;;;;;;14.60;6.82;;;;;9.00;95665.00;;;;8269746;28;21047;-78
2024/01/01 12:57:01;;;;;;;30.87;19.43;;;;;9.00;95659.00;;;;8273871;28;20213;-76
2024/01/01 13:01:10;;;;;;;7.35;4.07;;;;;8.90;95658.00;;;;8275498;28;20789;-77
2024/01/01 13:05:13;;;;;;;20.13;13.57;;;;;8.80;95666.00;;;;8272288;28;20222;-75
2024/01/01 13:09:16;;;;;;;13.43;10.63;;;;;8.80;95662.00;;;;8265832;28;20288;-76
2024/01/01 13:13:20;;;;;;;7.68;4.15;;;;;8.60;95666.00;;;;8264248;28;20198;-78
2024/01/01 13:17:24;;;;;;;7.57;2.15;;;;;8.10;95663.00;;;;8245655;28;20218;-77
2024/01/01 13:21:29;;;;;;;4.30;2.03;;;;;7.90;95666.00;;;;8266407;28;22000;-78
2024/01/01 13:25:32;;;;;;;5.18;1.75;;;;;7.70;95667.00;;;;8266378;28;20639;-76
2024/01/01 13:29:36;;;;;;;4.93;2.83;;;;;7.80;95665.00;;;;8271504;28;20207;-76
2024/01/01 13:33:40;;;;;;;6.72;4.68;;;;;8.00;95662.00;;;;8269008;28;20217;-77
2024/01/01 13:37:43;;;;;;;6.18;1.70;;;;;8.20;95657.00;;;;8271159;28;20198;-78
2024/01/01 13:41:47;;;;;;;2.60;1.58;;;;;8.40;95658.00;;;;8269871;28;20202;-77
2024/01/01 13:45:50;;;;;;;4.20;1.70;;;;;8.50;95654.00;;;;8273644;28;20370;-78
2024/01/01 13:49:55;;;;;;;8.53;1.87;;;;;8.60;95657.00;;;;8270942;28;20202;-78
2024/01/01 13:53:59;;;;;;;3.45;1.75;;;;;8.60;95655.00;;;;8267607;28;20197;-80
2024/01/01 13:58:03;;;;;;;6.50;1.70;;;;;8.70;95659.00;;;;8272556;28;20321;-76
2024/01/01 14:02:07;;;;;;;7.07;2.05;;;;;8.70;95668.00;;;;8274933;28;20357;-76
2024/01/01 14:06:12;;;;;;;4.78;1.88;;;;;8.70;95672.00;;;;8277945;28;20206;-79
2024/01/01 14:10:16;;;;;;;2.47;1.40;;;;;8.70;95671.00;;;;8276739;28;20201;-78
2024/01/01 14:14:19;;;;;;;2.45;1.65;;;;;8.70;95676.00;;;;8278566;28;20623;-75
2024/01/01 14:18:22;;;;;;;2.72;1.40;;;;;8.70;95676.00;;;;8277544;28;20300;-80
2024/01/01 14:22:27;;;;;;;6.05;1.63;;;;;8.60;95682.00;;;;8274620;28;20201;-77
2024/01/01 14:26:33;;;;;;;7.05;1.73;;;;;8.30;95699.00;;;;8275961;28;20273;-77
2024/01/01 14:30:36;;;;;;;7.25;2.00;;;;;8.10;95692.00;;;;8274364;28;20198;-78
2024/01/01 14:34:40;;;;;;;9.88;2.35;;;;;8.00;95699.00;;;;8277117;28;20670;-75
2024/01/01 14:38:44;;;;;;;4.13;1.65;;;;;8.00;95706.00;;;;8270846;28;20352;-82
2024/01/01 14:42:48;;;;;;;6.28;1.98;;;;;8.10;95716.00;;;;8272101;28;20742;-79
2024/01/01 14:46:51;;;;;;;7.28;1.75;;;;;8.00;95710.00;;;;8272260;28;20208;-79
2024/01/01 14:50:55;;;;;;;3.72;1.23;;;;;7.90;95701.00;;;;8273724;28;20210;-82
2024/01/01 14:55:04;;;;;;;6.88;1.60;;;;;7.80;95707.00;;;;8273852;28;20201;-78
2024/01/01 14:59:07;;;;;;;3.60;1.63;;;;;7.60;95698.00;;;;8272782;28;20324;-77
2024/01/01 15:03:11;;;;;;;13.87;10.67;;;;;7.50;95719.00;;;;8271451;28;20242;-76
2024/01/01 15:07:14;;;;;;;12.37;4.23;;;;;7.40;95718.00;;;;8273161;28;20337;-75
2024/01/01 15:11:19;;;;;;;62.63;53.73;;;;;7.40;95719.00;;;;8274126;28;20194;-77
2024/01/01 15:15:22;;;;;;;90.63;78.47;;;;;7.30;95716.00;;;;8271227;28;20264;-78
2024/01/01 15:19:25;;;;;;;202.60;165.30;;;;;7.30;95726.00;;;;8271385;28;20253;-80
2024/01/01 15:23:29;;;;;;;6.60;3.33;;;;;7.20;95728.00;;;;8273834;28;20677;-78
2024/01/01 15:27:33;;;;;;;29.88;26.77;;;;;7.20;95735.00;;;;8274790;28;20307;-78
2024/01/01 15:31:36;;;;;;;14.00;6.82;;;;;7.10;95723.00;;;;8271424;28;21295;-75
2024/01/01 15:35:40;;;;;;;13.03;10.30;;;;;7.10;95734.00;;;;8273237;28;20204;-76
2024/01/01 15:39:43;;;;;;;9.18;4.50;;;;;7.00;95734.00;;;;8273361;28;20688;-73
2024/01/01 15:43:47;;;;;;;17.23;14.30;;;;;6.80;95744.00;;;;8275296;28;20285;-74
2024/01/01 15:47:52;;;;;;;44.03;39.00;;;;;6.80;95741.00;;;;8268937;28;20271;-73
2024/01/01 15:51:55;;;;;;;11.33;8.07;;;;;6.70;95751.00;;;;8268128;28;20771;-71
2024/01/01 15:55:58;;;;;;;5.47;2.53;;;;;6.60;95753.00;;;;8272555;28;20205;-75
2024/01/01 16:00:03;;;;;;;5.93;2.20;;;;;6.50;95752.00;;;;8275821;28;20442;-72
2024/01/01 16:04:06;;;;;;;7.53;1.97;;;;;6.50;95763.00;;;;8272087;28;20229;-72
2024/01/01 16:08:09;;;;;;;4.60;1.97;;;;;6.60;95755.00;;;;8275141;28;20206;-74
2024/01/01 16:12:13;;;;;;;9.07;2.40;;;;;6.70;95768.00;;;;8271592;28;20202;-72
2024/01/01 16:16:18;;;;;;;5.90;1.80;;;;;6.70;95770.00;;;;8272416;28;20232;-75
2024/01/01 16:20:21;;;;;;;14.07;2.40;;;;;6.70;95777.00;;;;8268251;28;20918;-73
2024/01/01 16:24:24;;;;;;;8.73;1.87;;;;;6.70;95777.00;;;;8271100;28;20240;-73
2024/01/01 16:28:27;;;;;;;6.03;1.80;;;;;6.70;95787.00;;;;8269337;28;20976;-72
2024/01/01 16:32:32;;;;;;;8.47;2.23;;;;;6.60;95793.00;;;;8273076;28;20256;-73
2024/01/01 16:36:36;;;;;;;9.53;3.60;;;;;6.50;95805.00;;;;8269917;28;20263;-74
2024/01/01 16:40:43;;;;;;;4.90;2.20;;;;;6.40;95804.00;;;;8268307;28;20421;-73
2024/01/01 16:44:46;;;;;;;5.90;2.50;;;;;6.30;95814.00;;;;8271845;28;20186;-72
2024/01/01 16:48:51;;;;;;;13.27;2.70;;;;;6.10;95808.00;;;;8270040;28;20743;-73
2024/01/01 16:52:54;;;;;;;8.37;2.83;;;;;6.00;95812.00;;;;8270007;28;20201;-72
2024/01/01 16:56:58;;;;;;;5.43;2.57;;;;;5.90;95811.00;;;;8275429;28;20206;-73
2024/01/01 17:01:01;;;;;;;8.70;3.17;;;;;5.80;95812.00;;;;8269041;28;20317;-75
2024/01/01 17:05:06;;;;;;;8.83;4.20;;;;;5.70;95813.00;;;;8270796;28;20781;-73
2024/01/01 17:09:09;;;;;;;5.87;2.70;;;;;5.60;95817.00;;;;8269268;28;20198;-75
2024/01/01 17:13:13;;;;;;;200.03;144.60;;;;;5.60;95816.00;;;;8269970;28;20285;-73
2024/01/01 17:17:16;;;;;;;145.73;91.20;;;;;5.60;95802.00;;;;8266404;28;20681;-75
2024/01/01 17:21:21;;;;;;;23.90;14.60;;;;;5.50;95808.00;;;;8263809;28;20926;-75
2024/01/01 17:25:24;;;;;;;25.20;19.77;;;;;5.50;95800.00;;;;8269378;28;21230;-75
2024/01/01 17:29:28;;;;;;;10.77;4.90;;;;;5.50;95794.00;;;;8275958;28;20309;-75
2024/01/01 17:33:31;;;;;;;5.50;3.23;;;;;5.40;95803.00;;;;8273428;28;20194;-75
2024/01/01 17:37:38;;;;;;;13.60;4.77;;;;;5.30;95816.00;;;;8275367;28;20205;-76
2024/01/01 17:41:41;;;;;;;12.30;7.10;;;;;5.30;95822.00;;;;8267695;28;20234;-75
2024/01/01 17:45:45;;;;;;;29.97;25.53;;;;;5.20;95831.00;;;;8270753;28;20715;-75
2024/01/01 17:49:50;;;;;;;44.57;38.77;;;;;5.20;95826.00;;;;8275300;28;20268;-77
2024/01/01 17:53:55;;;;;;;190.13;96.77;;;;;5.20;95831.00;;;;8272780;28;20225;-77
2024/01/01 17:57:58;;;;;;;67.77;44.27;;;;;5.20;95834.00;;;;8278232;28;20205;-76
2024/01/01 18:02:01;;;;;;;18.43;9.80;;;;;5.20;95835.00;;;;8272499;28;20289;-75
2024/01/01 18:06:06;;;;;;;17.53;9.30;;;;;5.20;95826.00;;;;8276809;28;20206;-77
2024/01/01 18:15:33;;;;;;;12.70;4.53;;;;;5.10;95834.00;;;;8245385;28;20265;-77
2024/01/01 18:19:36;;;;;;;13.40;6.27;;;;;5.10;95835.00;;;;8275574;28;20301;-79
2024/01/01 18:23:39;;;;;;;15.83;5.53;;;;;5.10;95840.00;;;;8270430;28;20289;-78
2024/01/01 18:27:43;;;;;;;5.77;2.50;;;;;5.10;95839.00;;;;8266303;28;20198;-78
2024/01/01 18:31:48;;;;;;;6.77;2.57;;;;;5.00;95836.00;;;;8272603;28;20234;-78
2024/01/01 18:35:51;;;;;;;5.13;2.20;;;;;5.00;95841.00;;;;8275059;28;20302;-77
2024/01/01 18:39:54;;;;;;;11.27;2.60;;;;;4.90;95851.00;;;;8271522;28;20605;-76
2024/01/01 18:43:57;;;;;;;6.67;2.63;;;;;4.80;95856.00;;;;8273589;28;20726;-77
2024/01/01 18:48:02;;;;;;;16.27;7.50;;;;;4.80;95857.00;;;;8269033;28;20213;-78
2024/01/01 18:52:06;;;;;;;6.40;2.63;;;;;4.80;95863.00;;;;8275971;28;20225;-77
2024/01/01 18:56:09;;;;;;;25.90;11.30;;;;;4.80;95870.00;;;;8273447;28;20903;-78
2024/01/01 19:00:13;;;;;;;15.83;8.40;;;;;4.80;95866.00;;;;8273572;28;20656;-78
2024/01/01 19:04:18;;;;;;;14.40;5.97;;;;;4.90;95858.00;;;;8271952;28;20264;-78
2024/01/01 19:08:26;;;;;;;13.10;3.30;;;;;5.00;95872.00;;;;8275655;28;20210;-77
2024/01/01 19:12:29;;;;;;;9.20;3.70;;;;;5.10;95863.00;;;;8273664;28;20201;-78
2024/01/01 19:16:32;;;;;;;8.53;3.30;;;;;5.20;95854.00;;;;8272588;28;20202;-77
2024/01/01 19:20:37;;;;;;;8.57;2.40;;;;;5.30;95853.00;;;;8273947;28;20234;-77
2024/01/01 19:24:41;;;;;;;6.90;2.60;;;;;5.30;95860.00;;;;8272057;28;20241;-76
2024/01/01 19:28:44;;;;;;;7.63;2.43;;;;;5.30;95853.00;;;;8275381;28;20202;-77
2024/01/01 19:32:48;;;;;;;10.57;2.70;;;;;5.30;95855.00;;;;8273602;28;20202;-77
2024/01/01 19:36:52;;;;;;;13.17;3.10;;;;;5.30;95858.00;;;;8271686;28;20205;-77
2024/01/01 19:40:55;;;;;;;7.23;2.87;;;;;5.30;95858.00;;;;8270595;28;20222;-76
2024/01/01 19:44:59;;;;;;;10.73;2.50;;;;;5.30;95859.00;;;;8254863;28;20213;-78
2024/01/01 19:49:02;;;;;;;5.10;2.13;;;;;5.40;95858.00;;;;8267319;28;20229;-78
2024/01/01 19:53:08;;;;;;;4.07;2.20;;;;;5.30;95873.00;;;;8269538;28;20337;-77
2024/01/01 19:57:29;;;;;;;4.03;2.27;;;;;5.30;95874.00;;;;8265435;28;20202;-77
2024/01/01 20:01:32;;;;;;;5.03;1.93;;;;;5.20;95877.00;;;;8267813;28;20619;-79
2024/01/01 20:05:35;;;;;;;10.70;2.50;;;;;5.20;95865.00;;;;8274412;28;20206;-77
2024/01/01 20:09:43;;;;;;;8.23;2.17;;;;;5.10;95873.00;;;;8270008;28;20794;-77
2024/01/01 20:13:46;;;;;;;3.80;2.13;;;;;5.10;95880.00;;;;8267406;28;20550;-79
2024/01/01 20:17:50;;;;;;;5.93;2.07;;;;;5.10;95877.00;;;;8268153;28;20273;-78
2024/01/01 20:21:53;;;;;;;11.00;2.60;;;;;5.00;95872.00;;;;8273371;28;20678;-78
2024/01/01 20:25:57;;;;;;;7.83;2.17;;;;;5.00;95873.00;;;;8272272;28;20206;-78
2024/01/01 20:30:01;;;;;;;7.83;2.00;;;;;5.00;95869.00;;;;8270340;28;20565;-79
2024/01/01 20:34:04;;;;;;;5.83;2.10;;;;;5.00;95869.00;;;;8270312;28;20197;-78